Estación Meteorológica Peña el Pijo (Robertgarden) [ 07/23/19 00:54:51 CEST ]

Fecha Hora Presion(HPa) Temp (°C) Humedad % Rocio (°C) Viento ( m/s) Direccion Lluvia 1Hora(mm) Lluvia 24H(mm) LLuvia Total(mm)
2019-May-27 01:01:47 1007.700 18.4 59 10.2         318.05
2019-May-27 02:02:02 1007.600 21.2 62 13.6         318.05
2019-May-27 03:01:44 1007.300 21.6 69 15.7         318.05
2019-May-27 04:01:43 1007.200 23.1 73 18.0         318.05
2019-May-27 05:01:37 1006.500 21.5 73 16.4         318.05
2019-May-27 06:01:45 1006.400 24.2 74 19.3         318.05
2019-May-27 07:01:39 1006.600 23.9 77 19.6         318.05
2019-May-27 08:01:44 1006.400 17.8 77 13.7         318.05
2019-May-27 09:01:51 1006.300 18.3 58 9.9         318.05
2019-May-27 10:01:43 1006.400 23.6 44 10.6         318.05
2019-May-27 11:01:58 1006.300 25.6 31 7.2         318.05
2019-May-27 12:01:53 1006.200 26.8 29 7.2         318.05
2019-May-27 13:01:48 1006.100 27.6 27 6.7         318.05
2019-May-27 14:01:35 1005.600 28.7 26 7.1         318.05
2019-May-27 15:01:47 1005.300 29.6 26 7.8         318.05
2019-May-27 16:01:39 1004.900 27.8 29 8.1         318.05
2019-May-27 17:01:31 1004.600 29.8 26 8.0         318.05
2019-May-27 18:01:38 1004.500 28.2 27 7.2         318.05
2019-May-27 19:01:58 1004.200 26.0 32 8.0         318.05
2019-May-27 20:01:46 1004.500 24.4 34 7.4         318.05
2019-May-27 21:01:42 1004.700 22.4 41 8.5         318.05
2019-May-27 22:01:38 1004.600 19.6 49 8.6         318.05
2019-May-27 23:01:47 1005.300 17.9 56 8.9         318.05

Temperatura Máxima:29°    Temperatura Mínima:17°
Presión Máxima:1007.700 Hpa    Presión Mínima:1004.200 Hpa


Volver